aviador You're here:

K1YT Decoded Metar

in
Report Time2017-09-26 11:58:00
UTC Time2017-09-26 12:34:53
Flight Rules vfr VFR
Wind100° at 10 kt
W.Rank100° ranks 2
Current wind is above 100° avg. (6.6)
Visibility9999 m
Phenomena:N/A
Clouds:N/A
Expected CloudBase > 1,600 ft AGL from Temp-Dew spread
CeilingNone
Temp12°C
Dew Point08°C (77% RH)
AAT8.0°C
QNH1020 hPa
Raw Report
METAR K1YT 261158Z AUTO 10010KT 10SM CLR 12/08 A3011 RMK AO2 SLPNO
T01190078 10138 20086 52007 $=

Extra information for K1YT:More info

Social comments